ADDS TAF Board (Experimental) INFO Settings
IDs: Format: Expanded Condensed

KDEN - Denver Intl, CO, US

Issued at 2339 UTC 01 May 2016
Updated at: 0123 UTC 02 May 2016
Time0053Z 02/02Z 02/03Z 02/04Z 02/05Z 02/06Z 02/07Z 02/08Z 02/09Z 02/10Z 02/11Z 02/12Z 02/13Z 02/14Z
Type OBS PRVL PRVL PRVL PRVL PRVL PRVL PRVL PRVL PRVL PRVL PRVL PRVL PRVL
VIS 10 >6 >6 >6 >6 >6 >6 >6 >6 >6 >6 >6 >6 >6
CIG 250 45 45 45 100 100 100 100 100 -- -- -- -- --
Cover BKN BKN BKN BKN BKN BKN BKN BKN BKN SCT SCT SCT SCT SCT
FltCat VFR VFR VFR VFR VFR VFR VFR VFR VFR VFR VFR VFR VFR VFR
WX -- -- -- -- -- -- -- -- -- VCFG VCFG VCFG VCFG VCFG
WDir 340 VRB VRB VRB 200 200 200 200 200 220 220 220 220 220
WSpd 3 5 5 5 6 6 6 6 6 5 5 5 5 5
WGst -- -- -- -- -- -- -- -- -- -- -- -- -- --
R07/25
XWnd 3 VRB VRB VRB -6 -6 -6 -6 -6 -4 -4 -4 -4 -4
HWnd -1 VRB VRB VRB -2 -2 -2 -2 -2 -3 -3 -3 -3 -3
R08/26
XWnd 3 VRB VRB VRB -6 -6 -6 -6 -6 -4 -4 -4 -4 -4
HWnd -1 VRB VRB VRB -2 -2 -2 -2 -2 -3 -3 -3 -3 -3
R16/34
XWnd -1 VRB VRB VRB -2 -2 -2 -2 -2 -3 -3 -3 -3 -3
HWnd -3 VRB VRB VRB 6 6 6 6 6 4 4 4 4 4
R17/35
XWnd -1 VRB VRB VRB -2 -2 -2 -2 -2 -3 -3 -3 -3 -3
HWnd -3 VRB VRB VRB 6 6 6 6 6 4 4 4 4 4

NOTE: TEMPO conditions in [brackets]. Keep in mind TEMPO conditions might be better (lower impact) than prevailing conditions.

Raw TAF
KDEN 012339Z 0200/0306 31005KT P6SM FEW020 OVC035
  FM020200 VRB05KT P6SM SCT030 BKN045
  FM020500 20006KT P6SM SCT035 BKN100
  FM021000 22005KT P6SM VCFG FEW010 SCT100
  FM021500 VRB05KT P6SM FEW100 SCT220
  FM021800 08006KT P6SM SCT060 SCT220
  FM022300 13005KT P6SM FEW070 SCT220
  FM030300 21008KT P6SM FEW060 SCT220


Raw METAR
KDEN 020053Z 34003KT 10SM FEW040 SCT055 BKN250 06/M03 A3027 RMK AO2 SLP248 T00561028
KDEN 012353Z 33004KT 10SM FEW035 BKN060 05/M02 A3027 RMK AO2 SLP252 60000 T00501022 10050 20017 55003
KDEN 012253Z 29006KT 10SM FEW020 OVC037 04/M02 A3027 RMK AO2 SLP254 T00391017

METAR Board
Radar Display
Forecast Discussion

TAF Board Legend

Potential Impact
Threat None Slight Moderate High
Visibility (sm) ≥5.1 5.1>X≥3 3>X≥1 <1
Ceiling (100 ft) ≥30.1 30.1>X≥10 10>X≥5 <5
Wind Speed (kt) <10 10≤X<20 20≤X<30 ≥30
Wind Gust (kt) <15 15≤X<25 25≤X<35 ≥35
Weather No Wx Reported VCTS,-TS,-FZRA,SN TS,FZRA +TS,+FZRA,+SN